Terminal Aerodrome Forecast
Issued by NWS Sterling, VA

Current Version | Previous Version | Graphics & Text | Print | Product List | Glossary On
Versions: 1 2 3 4 5 6 7 8 9 10 11 12 13 14 15 16 17 18 19 20 21 22 23 24
003
FTUS41 KLWX 150539
TAFDCA
TAF
KDCA 150539Z 1506/1612 02007KT P6SM SCT250
     FM151500 01005KT P6SM BKN035
     FM151600 01005KT P6SM BKN025
     FM160200 VRB03KT P6SM OVC025
     FM160600 00000KT P6SM BKN015
     FM161000 VRB03KT P6SM BKN080=

USA.gov is the U.S. government's official web portal to all federal, state and local government web resources and services.